createdAt,value
2023-03-15T00:00:28.803Z,1.94
2023-03-15T00:02:32.576Z,1.92
2023-03-15T00:04:37.392Z,1.91
2023-03-15T00:06:42.457Z,1.91
2023-03-15T00:08:47.930Z,1.91
2023-03-15T00:10:51.603Z,1.92
2023-03-15T00:12:55.097Z,1.91
2023-03-15T00:14:59.468Z,1.91
2023-03-15T00:17:03.430Z,1.89
2023-03-15T00:19:07.070Z,1.89
2023-03-15T00:21:10.745Z,1.87
2023-03-15T00:23:16.826Z,1.86
2023-03-15T00:25:20.289Z,1.84
2023-03-15T00:27:24.032Z,1.83
2023-03-15T00:29:27.785Z,1.83
2023-03-15T00:31:31.389Z,1.82
2023-03-15T00:33:36.067Z,1.81
2023-03-15T00:35:41.194Z,1.77
2023-03-15T00:37:44.682Z,1.75
2023-03-15T00:39:50.264Z,1.72
2023-03-15T00:41:57.130Z,1.69
2023-03-15T00:44:01.362Z,1.66
2023-03-15T00:46:06.262Z,1.64
2023-03-15T00:48:10.706Z,1.61
2023-03-15T00:50:14.432Z,1.61
2023-03-15T00:52:19.301Z,1.59
2023-03-15T00:54:24.077Z,1.59
2023-03-15T00:56:30.979Z,1.59
2023-03-15T00:58:35.070Z,1.59
2023-03-15T01:00:38.696Z,1.60
2023-03-15T01:02:46.146Z,1.60
2023-03-15T01:04:50.027Z,1.63
2023-03-15T01:06:53.639Z,1.64
2023-03-15T01:08:58.195Z,1.64
2023-03-15T01:11:04.913Z,1.64
2023-03-15T01:13:11.718Z,1.63
2023-03-15T01:15:16.920Z,1.63
2023-03-15T01:17:20.437Z,1.61
2023-03-15T01:19:24.192Z,1.59
2023-03-15T01:21:30.000Z,1.57
2023-03-15T01:23:33.763Z,1.56
2023-03-15T01:25:37.357Z,1.52
2023-03-15T01:27:41.181Z,1.50
2023-03-15T01:29:46.525Z,1.49
2023-03-15T01:31:51.393Z,1.46
2023-03-15T01:33:55.478Z,1.42
2023-03-15T01:36:01.724Z,1.41
2023-03-15T01:38:06.359Z,1.39
2023-03-15T01:40:14.360Z,1.38
2023-03-15T01:42:20.525Z,1.37
2023-03-15T01:44:24.409Z,1.30
2023-03-15T01:46:34.881Z,1.22
2023-03-15T01:48:57.008Z,1.11
2023-03-15T01:51:11.452Z,1.07
2023-03-15T01:53:15.048Z,1.00
2023-03-15T01:55:21.428Z,0.99
2023-03-15T01:57:39.067Z,0.98
2023-03-15T01:59:47.769Z,0.94
2023-03-15T02:01:54.886Z,0.91
2023-03-15T02:04:04.185Z,0.90
2023-03-15T02:06:11.878Z,0.90
2023-03-15T02:08:21.538Z,0.91
2023-03-15T02:10:28.901Z,0.92
2023-03-15T02:12:36.371Z,0.94
2023-03-15T02:14:40.888Z,0.96
2023-03-15T02:16:46.464Z,0.93
2023-03-15T02:18:54.128Z,0.94
2023-03-15T02:21:07.292Z,0.95
2023-03-15T02:23:14.430Z,0.94
2023-03-15T02:25:24.025Z,0.92
2023-03-15T02:27:32.106Z,0.90
2023-03-15T02:29:35.794Z,0.87
2023-03-15T02:31:39.761Z,0.85
2023-03-15T02:33:46.205Z,0.84
2023-03-15T02:35:51.477Z,0.84
2023-03-15T02:37:55.294Z,0.81
2023-03-15T02:39:59.133Z,0.80
2023-03-15T02:42:03.539Z,0.76
2023-03-15T02:44:13.619Z,0.74
2023-03-15T02:46:19.304Z,0.73
2023-03-15T02:48:23.633Z,0.73
2023-03-15T02:50:27.306Z,0.74
2023-03-15T02:52:31.229Z,0.74
2023-03-15T02:54:35.387Z,0.75
2023-03-15T02:56:38.976Z,0.81
2023-03-15T02:58:45.919Z,0.87
2023-03-15T03:00:52.657Z,0.92
2023-03-15T03:02:56.600Z,0.95
2023-03-15T03:05:00.314Z,0.98
2023-03-15T03:07:03.862Z,1.01
2023-03-15T03:09:19.420Z,1.01
2023-03-15T03:11:23.121Z,1.04
2023-03-15T03:13:27.755Z,1.06
2023-03-15T03:15:31.491Z,1.08
2023-03-15T03:17:38.789Z,1.08
2023-03-15T03:19:42.895Z,1.06
2023-03-15T03:21:47.568Z,1.07
2023-03-15T03:23:51.213Z,1.08
2023-03-15T03:25:55.248Z,1.06
2023-03-15T03:27:59.968Z,0.99
2023-03-15T03:30:05.517Z,0.96
2023-03-15T03:32:10.431Z,0.94
2023-03-15T03:34:16.531Z,0.91
2023-03-15T03:36:19.994Z,0.89
2023-03-15T03:38:23.955Z,0.89
2023-03-15T03:40:32.363Z,0.90
2023-03-15T03:42:36.323Z,0.93
2023-03-15T03:44:40.913Z,0.95
2023-03-15T03:46:44.870Z,0.99
2023-03-15T03:48:50.045Z,1.03
2023-03-15T03:50:55.178Z,1.03
2023-03-15T03:52:58.606Z,1.04
2023-03-15T03:55:07.942Z,1.05
2023-03-15T03:57:12.240Z,1.01
2023-03-15T03:59:16.976Z,0.97
2023-03-15T04:01:30.867Z,0.94
2023-03-15T04:03:34.717Z,0.90
2023-03-15T04:05:43.243Z,0.89
2023-03-15T04:07:53.262Z,0.88
2023-03-15T04:09:56.773Z,0.87
2023-03-15T04:12:00.378Z,0.89
2023-03-15T04:14:04.172Z,0.92
2023-03-15T04:16:08.903Z,0.93
2023-03-15T04:18:27.381Z,0.93
2023-03-15T04:20:34.759Z,0.92
2023-03-15T04:22:39.818Z,0.92
2023-03-15T04:24:57.008Z,0.97
2023-03-15T04:27:20.746Z,1.01
2023-03-15T04:30:05.814Z,1.03
2023-03-15T04:32:44.751Z,1.00
2023-03-15T04:35:04.723Z,0.94
2023-03-15T04:37:20.910Z,0.90
2023-03-15T04:39:33.724Z,0.93
2023-03-15T04:42:00.662Z,0.94
2023-03-15T04:44:27.952Z,0.96
2023-03-15T04:46:44.991Z,1.03
2023-03-15T04:49:20.400Z,1.10
2023-03-15T04:51:26.556Z,1.12
2023-03-15T04:53:40.253Z,1.10
2023-03-15T04:56:04.824Z,1.08
2023-03-15T04:58:32.564Z,1.05
2023-03-15T05:01:08.334Z,1.05
2023-03-15T05:03:41.069Z,1.10
2023-03-15T05:06:08.263Z,1.15
2023-03-15T05:08:32.051Z,1.17
2023-03-15T05:10:54.512Z,1.14
2023-03-15T05:13:24.012Z,1.14
2023-03-15T05:15:58.220Z,1.18
2023-03-15T05:18:14.356Z,1.21
2023-03-15T05:20:36.113Z,1.25
2023-03-15T05:22:56.297Z,1.28
2023-03-15T05:25:16.927Z,1.31
2023-03-15T05:27:39.353Z,1.34
2023-03-15T05:30:10.435Z,1.36
2023-03-15T05:32:26.711Z,1.43
2023-03-15T05:34:50.275Z,1.54
2023-03-15T05:37:19.875Z,1.65
2023-03-15T05:39:24.215Z,1.73
2023-03-15T05:41:48.954Z,1.79
2023-03-15T05:44:06.551Z,1.87
2023-03-15T05:46:29.721Z,1.93
2023-03-15T05:48:48.370Z,1.97
2023-03-15T05:51:04.866Z,2.01
2023-03-15T05:53:22.674Z,2.08
2023-03-15T05:55:46.113Z,2.10
2023-03-15T05:58:07.858Z,2.13
2023-03-15T06:00:37.852Z,2.16
2023-03-15T06:02:50.525Z,2.18
2023-03-15T06:05:14.470Z,2.22
2023-03-15T06:07:17.841Z,2.25
2023-03-15T06:09:22.033Z,2.27
2023-03-15T06:11:25.539Z,2.28
2023-03-15T06:13:29.371Z,2.29
2023-03-15T06:15:33.417Z,2.33
2023-03-15T06:17:37.551Z,2.36
2023-03-15T06:19:40.832Z,2.39
2023-03-15T06:21:45.843Z,2.42
2023-03-15T06:23:57.817Z,2.48
2023-03-15T06:26:01.070Z,2.51
2023-03-15T06:28:06.241Z,2.53
2023-03-15T06:30:10.837Z,2.52
2023-03-15T06:32:14.265Z,2.48
2023-03-15T06:34:18.994Z,2.50
2023-03-15T06:36:23.402Z,2.49
2023-03-15T06:38:28.012Z,2.42
2023-03-15T06:40:31.347Z,2.44
2023-03-15T06:42:35.035Z,2.46
2023-03-15T06:44:38.774Z,2.47
2023-03-15T06:46:44.455Z,2.51
2023-03-15T06:48:48.538Z,2.54
2023-03-15T06:50:52.182Z,2.57
2023-03-15T06:52:55.505Z,2.62
2023-03-15T06:55:00.287Z,2.67
2023-03-15T06:57:04.756Z,2.71
2023-03-15T06:59:08.113Z,2.74
2023-03-15T07:01:13.537Z,2.78
2023-03-15T07:03:16.808Z,2.85
2023-03-15T07:05:20.090Z,2.89
2023-03-15T07:07:23.379Z,2.93
2023-03-15T07:09:26.742Z,2.98
2023-03-15T07:11:31.383Z,3.02
2023-03-15T07:13:34.667Z,3.05
2023-03-15T07:15:38.182Z,3.11
2023-03-15T07:17:41.986Z,3.15
2023-03-15T07:19:55.753Z,3.17
2023-03-15T07:21:59.709Z,3.20
2023-03-15T07:24:03.202Z,3.23
2023-03-15T07:26:06.614Z,3.25
2023-03-15T07:28:11.289Z,3.28
2023-03-15T07:30:15.357Z,3.30
2023-03-15T07:32:19.104Z,3.33
2023-03-15T07:34:22.334Z,3.34
2023-03-15T07:36:25.698Z,3.33
2023-03-15T07:38:30.184Z,3.35
2023-03-15T07:40:33.932Z,3.39
2023-03-15T07:42:38.023Z,3.41
2023-03-15T07:44:42.948Z,3.44
2023-03-15T07:46:47.346Z,3.48
2023-03-15T07:48:51.185Z,3.49
2023-03-15T07:50:54.733Z,3.47
2023-03-15T07:52:58.460Z,3.48
2023-03-15T07:55:02.004Z,3.47
2023-03-15T07:57:06.145Z,3.44
2023-03-15T07:59:10.137Z,3.45
2023-03-15T08:01:15.173Z,3.46
2023-03-15T08:03:19.300Z,3.45
2023-03-15T08:05:25.079Z,3.46
2023-03-15T08:07:29.912Z,3.47
2023-03-15T08:09:34.988Z,3.49
2023-03-15T08:11:39.129Z,3.52
2023-03-15T08:13:42.625Z,3.52
2023-03-15T08:15:47.917Z,3.53
2023-03-15T08:17:53.027Z,3.52
2023-03-15T08:19:56.200Z,3.51
2023-03-15T08:22:00.356Z,3.50
2023-03-15T08:24:04.173Z,3.48
2023-03-15T08:26:08.303Z,3.46
2023-03-15T08:28:12.098Z,3.44
2023-03-15T08:30:17.418Z,3.43
2023-03-15T08:32:21.830Z,3.43
2023-03-15T08:34:27.222Z,3.39
2023-03-15T08:36:32.792Z,3.38
2023-03-15T08:38:36.769Z,3.41
2023-03-15T08:40:40.930Z,3.43
2023-03-15T08:42:44.427Z,3.47
2023-03-15T08:44:48.155Z,3.51
2023-03-15T08:46:51.732Z,3.57
2023-03-15T08:48:56.972Z,3.60
2023-03-15T08:51:05.373Z,3.62
2023-03-15T08:53:10.760Z,3.61
2023-03-15T08:55:15.022Z,3.60
2023-03-15T08:57:19.393Z,3.62
2023-03-15T08:59:31.966Z,3.65
2023-03-15T09:01:36.220Z,3.68
2023-03-15T09:03:40.187Z,3.70
2023-03-15T09:05:43.755Z,3.73
2023-03-15T09:07:49.194Z,3.76
2023-03-15T09:09:54.607Z,3.79
2023-03-15T09:11:58.219Z,3.79
2023-03-15T09:14:01.747Z,3.81
2023-03-15T09:16:05.675Z,3.82
2023-03-15T09:18:09.489Z,3.84
2023-03-15T09:20:17.081Z,3.87
2023-03-15T09:22:34.879Z,3.90
2023-03-15T09:24:43.102Z,3.89
2023-03-15T09:26:46.821Z,3.88
2023-03-15T09:28:50.382Z,3.89
2023-03-15T09:30:54.263Z,3.88
2023-03-15T09:32:57.969Z,3.86
2023-03-15T09:35:01.532Z,3.85
2023-03-15T09:37:05.917Z,3.85
2023-03-15T09:39:09.944Z,3.86
2023-03-15T09:41:20.363Z,3.89
2023-03-15T09:44:20.672Z,3.88
2023-03-15T09:46:32.487Z,3.84
2023-03-15T09:48:40.399Z,3.85
2023-03-15T09:50:47.860Z,3.82
2023-03-15T09:52:55.891Z,3.81
2023-03-15T09:55:02.428Z,3.79
2023-03-15T09:57:16.497Z,3.80
2023-03-15T09:59:23.222Z,3.82
2023-03-15T10:01:33.172Z,3.82
2023-03-15T10:03:45.413Z,3.83
2023-03-15T10:05:53.932Z,3.83
2023-03-15T10:07:57.600Z,3.81
2023-03-15T10:10:01.788Z,3.82
2023-03-15T10:12:11.890Z,3.83
2023-03-15T10:14:28.065Z,3.84
2023-03-15T10:16:41.168Z,3.86
2023-03-15T10:18:56.170Z,3.88
2023-03-15T10:21:07.668Z,3.89
2023-03-15T10:23:18.256Z,3.88
2023-03-15T10:25:26.386Z,3.89
2023-03-15T10:27:36.873Z,3.90
2023-03-15T10:29:40.636Z,3.92
2023-03-15T10:31:47.944Z,3.92
2023-03-15T10:33:52.704Z,3.98
2023-03-15T10:36:09.753Z,4.02
2023-03-15T10:38:18.143Z,4.07
2023-03-15T10:40:43.823Z,4.09
2023-03-15T10:42:49.167Z,4.16
2023-03-15T10:44:52.781Z,4.19
2023-03-15T10:47:16.010Z,4.22
2023-03-15T10:49:35.698Z,4.28
2023-03-15T10:51:43.570Z,4.33
2023-03-15T10:53:56.403Z,4.40
2023-03-15T10:56:02.158Z,4.48
2023-03-15T10:58:23.373Z,4.55
2023-03-15T11:00:31.357Z,4.60
2023-03-15T11:02:35.086Z,4.66
2023-03-15T11:04:42.785Z,4.74
2023-03-15T11:06:49.007Z,4.80
2023-03-15T11:08:52.682Z,4.85
2023-03-15T11:11:01.690Z,4.87
2023-03-15T11:13:15.813Z,4.90
2023-03-15T11:15:20.528Z,4.92
2023-03-15T11:17:26.210Z,4.94
2023-03-15T11:19:33.322Z,4.93
2023-03-15T11:21:38.761Z,4.96
2023-03-15T11:23:45.468Z,4.95
2023-03-15T11:25:49.298Z,4.96
2023-03-15T11:27:53.896Z,4.96
2023-03-15T11:30:04.515Z,4.98
2023-03-15T11:32:15.774Z,5.02
2023-03-15T11:34:26.674Z,5.04
2023-03-15T11:36:36.095Z,5.05
2023-03-15T11:38:46.368Z,5.09
2023-03-15T11:40:56.852Z,5.15
2023-03-15T11:43:05.013Z,5.17
2023-03-15T11:45:17.980Z,5.18
2023-03-15T11:47:29.766Z,5.23
2023-03-15T11:49:40.765Z,5.25
2023-03-15T11:51:44.569Z,5.30
2023-03-15T11:53:52.011Z,5.32
2023-03-15T11:55:56.029Z,5.37
2023-03-15T11:58:29.921Z,5.48
2023-03-15T12:00:55.226Z,5.57
2023-03-15T12:03:02.101Z,5.61
2023-03-15T12:05:17.880Z,5.64
2023-03-15T12:08:00.095Z,5.69
2023-03-15T12:10:36.089Z,5.72
2023-03-15T12:12:41.733Z,5.74
2023-03-15T12:14:46.852Z,5.78
2023-03-15T12:16:51.537Z,5.82
2023-03-15T12:18:59.268Z,5.84
2023-03-15T12:21:18.356Z,5.86
2023-03-15T12:23:33.887Z,5.90
2023-03-15T12:25:54.097Z,5.95
2023-03-15T12:28:01.134Z,5.99
2023-03-15T12:30:06.781Z,6.01
2023-03-15T12:32:15.661Z,6.03
2023-03-15T12:34:32.004Z,6.08
2023-03-15T12:36:39.420Z,6.13
2023-03-15T12:39:00.483Z,6.17
2023-03-15T12:41:09.638Z,6.20
2023-03-15T12:43:14.268Z,6.22
2023-03-15T12:45:43.704Z,6.26
2023-03-15T12:48:13.036Z,6.32
2023-03-15T12:50:52.665Z,6.41
2023-03-15T12:53:02.212Z,6.43
2023-03-15T12:55:13.452Z,6.48
2023-03-15T12:57:22.543Z,6.53
2023-03-15T12:59:50.430Z,6.57
2023-03-15T13:01:54.260Z,6.62
2023-03-15T13:03:59.661Z,6.65
2023-03-15T13:06:14.461Z,6.71
2023-03-15T13:08:22.957Z,6.77
2023-03-15T13:10:38.830Z,6.83
2023-03-15T13:12:47.082Z,6.89
2023-03-15T13:14:58.600Z,6.95
2023-03-15T13:17:09.237Z,7.03
2023-03-15T13:19:23.744Z,7.09
2023-03-15T13:21:35.192Z,7.17
2023-03-15T13:23:39.584Z,7.22
2023-03-15T13:25:52.994Z,7.26
2023-03-15T13:28:00.146Z,7.28
2023-03-15T13:30:11.585Z,7.29
2023-03-15T13:32:17.913Z,7.31
2023-03-15T13:34:24.343Z,7.37
2023-03-15T13:36:40.071Z,7.40
2023-03-15T13:38:45.709Z,7.43
2023-03-15T13:40:49.210Z,7.50
2023-03-15T13:42:52.841Z,7.52
2023-03-15T13:45:23.891Z,7.55
2023-03-15T13:47:28.233Z,7.57
2023-03-15T13:49:33.301Z,7.55
2023-03-15T13:51:39.296Z,7.56
2023-03-15T13:53:49.788Z,7.59
2023-03-15T13:55:55.602Z,7.60
2023-03-15T13:58:02.193Z,7.59
2023-03-15T14:00:11.789Z,7.60
2023-03-15T14:02:19.364Z,7.62
2023-03-15T14:04:26.565Z,7.65
2023-03-15T14:06:31.856Z,7.69
2023-03-15T14:08:39.476Z,7.68
2023-03-15T14:10:43.458Z,7.71
2023-03-15T14:12:47.472Z,7.74
2023-03-15T14:14:53.451Z,7.76
2023-03-15T14:17:05.885Z,7.78
2023-03-15T14:19:17.183Z,7.81
2023-03-15T14:21:32.275Z,7.83
2023-03-15T14:23:42.918Z,7.81
2023-03-15T14:25:53.437Z,7.82
2023-03-15T14:28:01.183Z,7.82
2023-03-15T14:30:06.714Z,7.82
2023-03-15T14:32:25.268Z,7.85
2023-03-15T14:34:34.814Z,7.85
2023-03-15T14:36:43.881Z,7.84
2023-03-15T14:38:53.698Z,7.85
2023-03-15T14:41:12.637Z,7.85
2023-03-15T14:43:16.470Z,7.88
2023-03-15T14:45:22.401Z,7.90
2023-03-15T14:47:26.208Z,7.93
2023-03-15T14:49:30.726Z,7.96
2023-03-15T14:51:34.294Z,8.02
2023-03-15T14:53:39.190Z,8.04
2023-03-15T14:55:44.351Z,8.06
2023-03-15T14:57:47.985Z,8.07
2023-03-15T14:59:51.907Z,8.07
2023-03-15T15:01:58.308Z,8.07
2023-03-15T15:04:04.047Z,8.07
2023-03-15T15:06:09.296Z,8.08
2023-03-15T15:08:14.892Z,8.07
2023-03-15T15:10:18.811Z,8.07
2023-03-15T15:12:24.201Z,8.09
2023-03-15T15:14:27.894Z,8.10
2023-03-15T15:16:31.641Z,8.11
2023-03-15T15:18:37.233Z,8.10
2023-03-15T15:20:43.837Z,8.10
2023-03-15T15:22:48.495Z,8.11
2023-03-15T15:24:52.021Z,8.10
2023-03-15T15:26:55.865Z,8.10
2023-03-15T15:29:01.949Z,8.12
2023-03-15T15:31:07.302Z,8.12
2023-03-15T15:33:11.780Z,8.10
2023-03-15T15:35:17.901Z,8.09
2023-03-15T15:37:21.743Z,8.07
2023-03-15T15:39:29.852Z,8.07
2023-03-15T15:41:33.458Z,8.06
2023-03-15T15:43:37.322Z,8.05
2023-03-15T15:45:42.617Z,8.02
2023-03-15T15:47:46.837Z,8.01
2023-03-15T15:49:50.671Z,7.95
2023-03-15T15:51:54.814Z,7.92
2023-03-15T15:54:00.191Z,7.87
2023-03-15T15:56:04.477Z,7.84
2023-03-15T15:58:10.272Z,7.77
2023-03-15T16:00:19.263Z,7.72
2023-03-15T16:02:24.936Z,7.67
2023-03-15T16:04:28.938Z,7.62
2023-03-15T16:06:33.208Z,7.57
2023-03-15T16:08:41.881Z,7.55
2023-03-15T16:10:46.002Z,7.53
2023-03-15T16:12:51.027Z,7.52
2023-03-15T16:14:54.336Z,7.50
2023-03-15T16:16:57.872Z,7.48
2023-03-15T16:19:03.473Z,7.50
2023-03-15T16:21:07.417Z,7.50
2023-03-15T16:23:19.726Z,7.49
2023-03-15T16:25:27.586Z,7.51
2023-03-15T16:27:31.844Z,7.52
2023-03-15T16:29:39.230Z,7.52
2023-03-15T16:31:42.925Z,7.52
2023-03-15T16:33:46.609Z,7.53
2023-03-15T16:35:53.601Z,7.53
2023-03-15T16:37:58.793Z,7.52
2023-03-15T16:40:05.169Z,7.52
2023-03-15T16:42:12.339Z,7.51
2023-03-15T16:44:18.210Z,7.52
2023-03-15T16:46:22.134Z,7.51
2023-03-15T16:48:26.322Z,7.50
2023-03-15T16:50:30.285Z,7.50
2023-03-15T16:52:35.239Z,7.49
2023-03-15T16:54:41.569Z,7.48
2023-03-15T16:56:45.896Z,7.52
2023-03-15T16:58:52.913Z,7.53
2023-03-15T17:00:56.711Z,7.54
2023-03-15T17:03:02.159Z,7.57
2023-03-15T17:05:07.100Z,7.58
2023-03-15T17:07:14.538Z,7.56
2023-03-15T17:09:22.925Z,7.61
2023-03-15T17:11:30.044Z,7.65
2023-03-15T17:13:34.721Z,7.70
2023-03-15T17:15:39.252Z,7.74
2023-03-15T17:17:43.642Z,7.76
2023-03-15T17:19:48.398Z,7.75
2023-03-15T17:22:12.177Z,7.74
2023-03-15T17:24:19.416Z,7.73
2023-03-15T17:26:35.286Z,7.70
2023-03-15T17:28:38.849Z,7.68
2023-03-15T17:30:42.455Z,7.69
2023-03-15T17:32:46.483Z,7.70
2023-03-15T17:34:50.308Z,7.72
2023-03-15T17:36:55.598Z,7.74
2023-03-15T17:38:59.570Z,7.77
2023-03-15T17:41:03.996Z,7.88
2023-03-15T17:43:13.584Z,7.96
2023-03-15T17:45:21.187Z,7.99
2023-03-15T17:47:24.869Z,7.99
2023-03-15T17:49:28.806Z,8.00
2023-03-15T17:51:35.030Z,8.02
2023-03-15T17:53:38.807Z,8.03
2023-03-15T17:55:42.998Z,8.10
2023-03-15T17:57:54.629Z,8.11
2023-03-15T18:00:00.759Z,8.26
2023-03-15T18:02:04.481Z,8.29
2023-03-15T18:04:12.270Z,8.30
2023-03-15T18:06:16.420Z,8.33
2023-03-15T18:08:22.510Z,8.32
2023-03-15T18:10:28.614Z,8.27
2023-03-15T18:12:33.131Z,8.22
2023-03-15T18:14:38.284Z,8.19
2023-03-15T18:16:43.889Z,8.15
2023-03-15T18:18:47.744Z,8.16
2023-03-15T18:20:51.400Z,8.14
2023-03-15T18:22:55.501Z,8.11
2023-03-15T18:24:59.372Z,8.08
2023-03-15T18:27:03.059Z,8.07
2023-03-15T18:29:06.856Z,8.07
2023-03-15T18:31:14.512Z,8.06
2023-03-15T18:33:19.791Z,8.02
2023-03-15T18:35:24.567Z,7.98
2023-03-15T18:37:28.983Z,7.97
2023-03-15T18:39:33.429Z,7.97
2023-03-15T18:41:37.358Z,7.99
2023-03-15T18:43:41.437Z,8.03
2023-03-15T18:45:45.739Z,8.06
2023-03-15T18:47:50.524Z,8.07
2023-03-15T18:50:04.439Z,8.06
2023-03-15T18:52:16.342Z,8.04
2023-03-15T18:54:20.368Z,8.05
2023-03-15T18:56:26.289Z,8.07
2023-03-15T18:58:31.840Z,8.04
2023-03-15T19:00:37.020Z,8.02
2023-03-15T19:02:42.047Z,8.04
2023-03-15T19:04:45.867Z,8.10
2023-03-15T19:06:51.369Z,8.11
2023-03-15T19:08:56.205Z,8.10
2023-03-15T19:11:02.066Z,8.08
2023-03-15T19:13:07.313Z,8.08
2023-03-15T19:15:18.052Z,8.11
2023-03-15T19:17:22.284Z,8.13
2023-03-15T19:19:26.446Z,8.13
2023-03-15T19:21:30.179Z,8.13
2023-03-15T19:23:35.961Z,8.16
2023-03-15T19:25:39.811Z,8.16
2023-03-15T19:27:43.827Z,8.17
2023-03-15T19:29:47.534Z,8.21
2023-03-15T19:31:51.266Z,8.20
2023-03-15T19:33:54.913Z,8.22
2023-03-15T19:35:58.705Z,8.25
2023-03-15T19:38:02.862Z,8.25
2023-03-15T19:40:10.206Z,8.24
2023-03-15T19:42:13.886Z,8.22
2023-03-15T19:44:17.388Z,8.19
2023-03-15T19:46:21.201Z,8.22
2023-03-15T19:48:24.938Z,8.24
2023-03-15T19:50:31.597Z,8.23
2023-03-15T19:52:35.766Z,8.20
2023-03-15T19:54:39.556Z,8.23
2023-03-15T19:56:45.785Z,8.24
2023-03-15T19:58:50.122Z,8.27
2023-03-15T20:00:57.400Z,8.28
2023-03-15T20:03:01.129Z,8.35
2023-03-15T20:05:04.835Z,8.36
2023-03-15T20:07:11.315Z,8.43
2023-03-15T20:09:15.404Z,8.52
2023-03-15T20:11:25.357Z,8.58
2023-03-15T20:13:30.598Z,8.64
2023-03-15T20:15:34.475Z,8.69
2023-03-15T20:17:38.243Z,8.74
2023-03-15T20:19:41.743Z,8.76
2023-03-15T20:21:45.489Z,8.79
2023-03-15T20:23:49.241Z,8.81
2023-03-15T20:25:52.822Z,8.83
2023-03-15T20:27:57.406Z,8.86
2023-03-15T20:30:03.794Z,8.90
2023-03-15T20:32:07.775Z,8.91
2023-03-15T20:34:12.471Z,8.93
2023-03-15T20:36:16.516Z,8.95
2023-03-15T20:38:20.590Z,8.95
2023-03-15T20:40:24.954Z,8.96
2023-03-15T20:42:29.194Z,8.96
2023-03-15T20:44:33.096Z,8.97
2023-03-15T20:46:40.103Z,8.98
2023-03-15T20:48:44.498Z,9.00
2023-03-15T20:50:49.406Z,9.01
2023-03-15T20:52:53.796Z,9.01
2023-03-15T20:54:57.729Z,9.01
2023-03-15T20:57:01.467Z,9.02
2023-03-15T20:59:05.258Z,9.04
2023-03-15T21:01:11.204Z,9.05
2023-03-15T21:03:18.265Z,9.05
2023-03-15T21:05:24.370Z,9.05
2023-03-15T21:07:27.857Z,9.05
2023-03-15T21:09:31.978Z,9.06
2023-03-15T21:11:36.117Z,9.06
2023-03-15T21:13:41.037Z,9.06
2023-03-15T21:15:48.003Z,9.10
2023-03-15T21:17:53.226Z,9.11
2023-03-15T21:19:58.545Z,9.12
2023-03-15T21:22:02.373Z,9.14
2023-03-15T21:24:07.205Z,9.16
2023-03-15T21:26:13.387Z,9.15
2023-03-15T21:28:17.157Z,9.17
2023-03-15T21:30:20.883Z,9.18
2023-03-15T21:32:25.079Z,9.20
2023-03-15T21:34:29.033Z,9.20
2023-03-15T21:36:39.133Z,9.20
2023-03-15T21:38:43.254Z,9.20
2023-03-15T21:40:48.164Z,9.22
2023-03-15T21:42:51.944Z,9.23
2023-03-15T21:44:56.897Z,9.24
2023-03-15T21:47:00.895Z,9.26
2023-03-15T21:49:05.765Z,9.29
2023-03-15T21:51:10.560Z,9.31
2023-03-15T21:53:16.321Z,9.33
2023-03-15T21:55:20.484Z,9.39
2023-03-15T21:57:24.545Z,9.52
2023-03-15T21:59:28.954Z,9.57
2023-03-15T22:01:32.923Z,9.58
2023-03-15T22:03:37.845Z,9.57
2023-03-15T22:05:42.009Z,9.55
2023-03-15T22:07:46.044Z,9.55
2023-03-15T22:09:53.369Z,9.53
2023-03-15T22:11:57.092Z,9.57
2023-03-15T22:14:01.281Z,9.58
2023-03-15T22:16:05.356Z,9.59
2023-03-15T22:18:09.379Z,9.61
2023-03-15T22:20:17.302Z,9.58
2023-03-15T22:22:21.342Z,9.53
2023-03-15T22:24:24.798Z,9.48
2023-03-15T22:26:29.922Z,9.43
2023-03-15T22:28:34.050Z,9.38
2023-03-15T22:30:38.017Z,9.35
2023-03-15T22:32:44.472Z,9.35
2023-03-15T22:34:48.305Z,9.36
2023-03-15T22:36:53.081Z,9.38
2023-03-15T22:38:58.719Z,9.36
2023-03-15T22:41:03.445Z,9.35
2023-03-15T22:43:09.818Z,9.32
2023-03-15T22:45:14.193Z,9.33
2023-03-15T22:47:18.312Z,9.34
2023-03-15T22:49:21.817Z,9.37
2023-03-15T22:51:25.770Z,9.40
2023-03-15T22:53:30.253Z,9.45
2023-03-15T22:55:33.835Z,9.43
2023-03-15T22:57:37.975Z,9.43
2023-03-15T22:59:43.180Z,9.42
2023-03-15T23:01:46.904Z,9.39
2023-03-15T23:03:51.208Z,9.34
2023-03-15T23:05:55.664Z,9.28
2023-03-15T23:07:59.795Z,9.24
2023-03-15T23:10:03.523Z,9.21
2023-03-15T23:12:08.104Z,9.19
2023-03-15T23:14:12.017Z,9.19
2023-03-15T23:16:17.360Z,9.18
2023-03-15T23:18:22.362Z,9.19
2023-03-15T23:20:26.864Z,9.22
2023-03-15T23:22:31.616Z,9.25
2023-03-15T23:24:40.518Z,9.27
2023-03-15T23:26:44.450Z,9.27
2023-03-15T23:28:48.458Z,9.29
2023-03-15T23:30:53.171Z,9.32
2023-03-15T23:32:59.055Z,9.32
2023-03-15T23:35:03.151Z,9.34
2023-03-15T23:37:06.880Z,9.37
2023-03-15T23:39:10.762Z,9.40
2023-03-15T23:41:14.381Z,9.42
2023-03-15T23:43:18.074Z,9.44
2023-03-15T23:45:21.898Z,9.47
2023-03-15T23:47:27.240Z,9.50
2023-03-15T23:49:32.999Z,9.52
2023-03-15T23:51:37.087Z,9.53
2023-03-15T23:53:40.750Z,9.53
2023-03-15T23:55:44.359Z,9.54
2023-03-15T23:57:47.922Z,9.55
2023-03-15T23:59:51.697Z,9.58
